createdAt,value
2023-01-20T00:01:38.170Z,55.91
2023-01-20T00:04:04.815Z,56.48
2023-01-20T00:06:31.440Z,56.47
2023-01-20T00:08:58.075Z,56.21
2023-01-20T00:11:24.754Z,56.61
2023-01-20T00:13:51.361Z,56.60
2023-01-20T00:16:18.024Z,57.58
2023-01-20T00:18:44.700Z,56.49
2023-01-20T00:21:11.389Z,57.37
2023-01-20T00:23:38.003Z,56.38
2023-01-20T00:26:04.664Z,56.00
2023-01-20T00:28:31.303Z,56.85
2023-01-20T00:30:58.068Z,56.98
2023-01-20T00:33:24.883Z,56.78
2023-01-20T00:35:51.541Z,56.50
2023-01-20T00:38:18.250Z,57.43
2023-01-20T00:40:44.987Z,57.64
2023-01-20T00:43:12.664Z,57.67
2023-01-20T00:45:39.352Z,57.75
2023-01-20T00:48:06.037Z,57.07
2023-01-20T00:50:32.699Z,57.86
2023-01-20T00:52:59.336Z,57.97
2023-01-20T00:55:26.197Z,58.67
2023-01-20T00:57:52.803Z,58.55
2023-01-20T01:00:19.476Z,58.18
2023-01-20T01:02:46.143Z,57.36
2023-01-20T01:05:12.943Z,57.54
2023-01-20T01:07:39.718Z,57.67
2023-01-20T01:10:06.387Z,57.66
2023-01-20T01:12:33.065Z,57.47
2023-01-20T01:14:59.782Z,58.30
2023-01-20T01:17:26.415Z,57.63
2023-01-20T01:19:53.116Z,57.62
2023-01-20T01:22:19.817Z,57.80
2023-01-20T01:24:46.484Z,57.77
2023-01-20T01:27:13.137Z,57.10
2023-01-20T01:29:39.812Z,56.91
2023-01-20T01:34:50.838Z,56.93
2023-01-20T01:37:17.472Z,57.58
2023-01-20T01:39:44.180Z,57.54
2023-01-20T01:42:10.842Z,57.89
2023-01-20T01:44:37.507Z,57.51
2023-01-20T01:47:04.205Z,58.77
2023-01-20T01:49:30.859Z,59.08
2023-01-20T01:51:57.483Z,58.67
2023-01-20T01:54:24.136Z,58.55
2023-01-20T01:56:50.819Z,59.10
2023-01-20T01:59:17.537Z,60.87
2023-01-20T02:01:44.257Z,60.60
2023-01-20T02:04:11.004Z,59.58
2023-01-20T02:06:37.701Z,59.08
2023-01-20T02:09:04.479Z,59.33
2023-01-20T02:11:31.129Z,59.83
2023-01-20T02:13:57.808Z,59.16
2023-01-20T02:16:24.501Z,59.42
2023-01-20T02:18:51.584Z,59.37
2023-01-20T02:21:18.216Z,60.04
2023-01-20T02:23:44.922Z,59.65
2023-01-20T02:26:11.751Z,58.50
2023-01-20T02:28:38.391Z,58.63
2023-01-20T02:31:05.081Z,58.95
2023-01-20T02:33:31.762Z,59.09
2023-01-20T02:35:58.370Z,58.51
2023-01-20T02:38:25.020Z,58.18
2023-01-20T02:40:51.661Z,58.87
2023-01-20T02:43:18.335Z,58.51
2023-01-20T02:45:45.029Z,59.16
2023-01-20T02:48:11.751Z,58.83
2023-01-20T02:50:38.420Z,58.93
2023-01-20T02:53:05.034Z,58.94
2023-01-20T02:55:31.703Z,58.88
2023-01-20T02:57:58.331Z,58.74
2023-01-20T03:00:25.067Z,58.43
2023-01-20T03:02:51.681Z,57.95
2023-01-20T03:05:18.300Z,58.94
2023-01-20T03:07:44.905Z,58.87
2023-01-20T03:10:11.592Z,59.42
2023-01-20T03:12:38.267Z,59.66
2023-01-20T03:15:04.906Z,60.13
2023-01-20T03:17:31.551Z,59.43
2023-01-20T03:19:58.188Z,59.18
2023-01-20T03:22:24.892Z,58.79
2023-01-20T03:24:51.568Z,58.94
2023-01-20T03:27:18.189Z,58.28
2023-01-20T03:29:44.864Z,58.74
2023-01-20T03:32:11.527Z,60.00
2023-01-20T03:34:38.157Z,61.73
2023-01-20T03:37:04.843Z,60.21
2023-01-20T03:39:31.520Z,59.96
2023-01-20T03:41:58.397Z,59.42
2023-01-20T03:44:25.016Z,59.68
2023-01-20T03:46:51.723Z,59.47
2023-01-20T03:49:18.371Z,58.94
2023-01-20T03:51:45.066Z,58.87
2023-01-20T03:54:11.688Z,59.68
2023-01-20T03:56:38.363Z,60.00
2023-01-20T03:59:05.024Z,59.41
2023-01-20T04:01:31.726Z,59.00
2023-01-20T04:03:58.432Z,59.20
2023-01-20T04:06:25.067Z,59.14
2023-01-20T04:08:51.756Z,58.89
2023-01-20T04:11:18.441Z,59.21
2023-01-20T04:13:45.189Z,58.54
2023-01-20T04:16:11.914Z,58.82
2023-01-20T04:18:38.620Z,59.42
2023-01-20T04:21:05.318Z,59.32
2023-01-20T04:23:31.988Z,59.32
2023-01-20T04:25:58.690Z,59.11
2023-01-20T04:28:25.316Z,58.62
2023-01-20T04:30:52.103Z,58.85
2023-01-20T04:33:18.747Z,58.74
2023-01-20T04:35:45.435Z,58.95
2023-01-20T04:38:12.094Z,58.93
2023-01-20T04:40:38.756Z,59.18
2023-01-20T04:43:05.391Z,59.25
2023-01-20T04:45:32.069Z,59.73
2023-01-20T04:47:58.761Z,60.41
2023-01-20T04:50:25.463Z,60.20
2023-01-20T04:52:52.113Z,59.84
2023-01-20T04:55:18.755Z,59.53
2023-01-20T04:57:45.432Z,59.77
2023-01-20T05:00:12.118Z,59.57
2023-01-20T05:02:38.836Z,60.18
2023-01-20T05:05:05.516Z,60.01
2023-01-20T05:07:32.206Z,59.46
2023-01-20T05:09:58.892Z,59.44
2023-01-20T05:12:25.556Z,59.59
2023-01-20T05:14:52.205Z,59.21
2023-01-20T05:17:18.894Z,58.97
2023-01-20T05:19:45.553Z,59.00
2023-01-20T05:22:12.185Z,59.26
2023-01-20T05:24:38.893Z,58.93
2023-01-20T05:27:05.505Z,59.30
2023-01-20T05:29:32.145Z,59.32
2023-01-20T05:31:58.811Z,59.39
2023-01-20T05:34:25.495Z,59.63
2023-01-20T05:36:52.199Z,59.36
2023-01-20T05:39:18.892Z,58.85
2023-01-20T05:41:45.538Z,58.67
2023-01-20T05:44:12.228Z,59.63
2023-01-20T05:46:38.900Z,59.65
2023-01-20T05:49:05.562Z,59.57
2023-01-20T05:51:32.249Z,59.31
2023-01-20T05:53:58.890Z,59.54
2023-01-20T05:56:25.555Z,59.86
2023-01-20T05:58:52.227Z,59.88
2023-01-20T06:01:20.982Z,59.26
2023-01-20T06:03:47.738Z,59.69
2023-01-20T06:06:14.356Z,59.26
2023-01-20T06:08:41.023Z,58.61
2023-01-20T06:11:07.822Z,59.22
2023-01-20T06:13:34.459Z,59.47
2023-01-20T06:16:01.097Z,59.61
2023-01-20T06:18:27.759Z,59.79
2023-01-20T06:20:54.430Z,59.78
2023-01-20T06:23:21.274Z,59.35
2023-01-20T06:25:47.952Z,59.45
2023-01-20T06:28:14.564Z,59.90
2023-01-20T06:30:41.293Z,60.11
2023-01-20T06:33:07.989Z,59.27
2023-01-20T06:35:34.728Z,57.80
2023-01-20T06:38:01.396Z,58.25
2023-01-20T06:40:28.062Z,58.10
2023-01-20T06:42:54.737Z,58.02
2023-01-20T06:45:21.401Z,56.90
2023-01-20T06:47:48.085Z,54.55
2023-01-20T06:50:14.764Z,55.34
2023-01-20T06:52:41.468Z,54.42
2023-01-20T06:55:08.105Z,54.68
2023-01-20T06:57:34.864Z,54.78
2023-01-20T07:00:01.724Z,53.88
2023-01-20T07:02:28.475Z,53.06
2023-01-20T07:04:55.202Z,53.30
2023-01-20T07:07:21.869Z,52.98
2023-01-20T07:09:48.558Z,52.39
2023-01-20T07:12:15.310Z,52.14
2023-01-20T07:14:41.996Z,51.07
2023-01-20T07:17:08.701Z,51.52
2023-01-20T07:19:35.348Z,51.61
2023-01-20T07:22:01.985Z,50.31
2023-01-20T07:24:28.641Z,50.53
2023-01-20T07:26:55.273Z,50.14
2023-01-20T07:29:21.912Z,50.07
2023-01-20T07:31:48.578Z,49.81
2023-01-20T07:34:15.227Z,49.73
2023-01-20T07:36:41.838Z,48.28
2023-01-20T07:39:08.754Z,49.66
2023-01-20T07:41:35.488Z,48.54
2023-01-20T07:44:02.140Z,49.47
2023-01-20T07:46:28.744Z,48.34
2023-01-20T07:48:55.393Z,48.77
2023-01-20T07:51:22.068Z,49.00
2023-01-20T07:53:48.757Z,47.76
2023-01-20T07:56:15.460Z,47.41
2023-01-20T07:58:42.213Z,49.30
2023-01-20T08:01:08.959Z,48.70
2023-01-20T08:03:35.743Z,47.57
2023-01-20T08:06:02.415Z,46.16
2023-01-20T08:08:29.070Z,47.00
2023-01-20T08:10:55.764Z,45.59
2023-01-20T08:13:22.429Z,45.58
2023-01-20T08:15:49.118Z,46.16
2023-01-20T08:18:15.741Z,45.69
2023-01-20T08:20:42.409Z,45.80
2023-01-20T08:23:09.039Z,46.27
2023-01-20T08:25:35.649Z,46.45
2023-01-20T08:28:04.319Z,46.00
2023-01-20T08:30:32.141Z,45.89
2023-01-20T08:32:58.845Z,45.80
2023-01-20T08:35:25.520Z,45.78
2023-01-20T08:37:52.138Z,45.86
2023-01-20T08:40:18.800Z,44.21
2023-01-20T08:42:45.672Z,45.26
2023-01-20T08:45:12.684Z,44.62
2023-01-20T08:47:39.417Z,43.94
2023-01-20T08:50:06.058Z,44.94
2023-01-20T08:52:32.714Z,43.31
2023-01-20T08:54:59.405Z,44.08
2023-01-20T08:57:26.162Z,44.34
2023-01-20T08:59:52.847Z,44.85
2023-01-20T09:02:19.553Z,45.62
2023-01-20T09:04:46.174Z,45.63
2023-01-20T09:07:12.957Z,43.76
2023-01-20T09:09:39.857Z,44.93
2023-01-20T09:12:06.572Z,44.28
2023-01-20T09:14:33.196Z,43.29
2023-01-20T09:16:59.828Z,44.44
2023-01-20T09:19:26.434Z,44.46
2023-01-20T09:21:53.143Z,44.80
2023-01-20T09:24:19.778Z,43.85
2023-01-20T09:26:46.452Z,44.59
2023-01-20T09:29:13.123Z,45.28
2023-01-20T09:31:40.053Z,44.09
2023-01-20T09:34:06.853Z,44.55
2023-01-20T09:36:33.524Z,43.48
2023-01-20T09:39:00.130Z,43.38
2023-01-20T09:41:26.769Z,43.42
2023-01-20T09:43:53.371Z,43.79
2023-01-20T09:46:20.095Z,43.97
2023-01-20T09:48:46.708Z,42.72
2023-01-20T09:51:13.401Z,42.98
2023-01-20T09:53:40.033Z,44.17
2023-01-20T09:56:08.520Z,43.57
2023-01-20T09:58:35.281Z,43.13
2023-01-20T10:01:01.903Z,42.85
2023-01-20T10:03:32.694Z,43.16
2023-01-20T10:05:59.357Z,42.62
2023-01-20T10:08:26.002Z,42.71
2023-01-20T10:10:52.675Z,42.28
2023-01-20T10:13:19.325Z,41.34
2023-01-20T10:15:46.025Z,42.57
2023-01-20T10:18:12.715Z,42.25
2023-01-20T10:20:39.368Z,43.28
2023-01-20T10:23:06.069Z,42.76
2023-01-20T10:25:32.788Z,43.48
2023-01-20T10:27:59.471Z,42.21
2023-01-20T10:30:26.138Z,43.49
2023-01-20T10:32:52.840Z,42.90
2023-01-20T10:35:19.492Z,42.46
2023-01-20T10:37:46.220Z,42.28
2023-01-20T10:40:12.906Z,41.92
2023-01-20T10:42:39.625Z,43.98
2023-01-20T10:45:06.269Z,42.66
2023-01-20T10:47:32.891Z,42.84
2023-01-20T10:49:59.546Z,42.83
2023-01-20T10:52:26.209Z,42.71
2023-01-20T10:54:52.917Z,43.42
2023-01-20T10:57:19.669Z,43.11
2023-01-20T10:59:46.388Z,42.64
2023-01-20T11:02:13.064Z,42.65
2023-01-20T11:04:39.741Z,42.50
2023-01-20T11:07:06.407Z,41.31
2023-01-20T11:09:33.081Z,42.41
2023-01-20T11:11:59.820Z,42.50
2023-01-20T11:14:26.517Z,42.63
2023-01-20T11:16:55.617Z,42.93
2023-01-20T11:19:22.313Z,41.97
2023-01-20T11:21:48.976Z,41.64
2023-01-20T11:24:15.653Z,42.45
2023-01-20T11:26:42.374Z,42.23
2023-01-20T11:29:09.037Z,42.16
2023-01-20T11:31:35.882Z,42.95
2023-01-20T11:34:03.369Z,41.45
2023-01-20T11:36:30.084Z,41.74
2023-01-20T11:38:56.750Z,42.22
2023-01-20T11:41:23.397Z,41.72
2023-01-20T11:43:50.056Z,42.01
2023-01-20T11:46:16.721Z,42.37
2023-01-20T11:48:43.398Z,41.62
2023-01-20T11:51:10.004Z,41.34
2023-01-20T11:53:36.682Z,41.48
2023-01-20T11:56:05.385Z,41.39
2023-01-20T11:58:32.238Z,41.57
2023-01-20T12:00:58.914Z,41.21
2023-01-20T12:03:25.501Z,40.52
2023-01-20T12:05:54.767Z,41.41
2023-01-20T12:08:21.648Z,40.67
2023-01-20T12:10:48.374Z,41.29
2023-01-20T12:13:15.001Z,41.70
2023-01-20T12:15:41.648Z,41.24
2023-01-20T12:18:10.182Z,42.33
2023-01-20T12:20:49.225Z,41.88
2023-01-20T12:23:20.551Z,41.11
2023-01-20T12:25:47.186Z,41.64
2023-01-20T12:28:13.991Z,41.50
2023-01-20T12:30:40.715Z,40.85
2023-01-20T12:33:07.425Z,41.81
2023-01-20T12:35:34.132Z,42.04
2023-01-20T12:38:00.784Z,41.71
2023-01-20T12:40:27.433Z,41.63
2023-01-20T12:42:54.085Z,42.25
2023-01-20T12:45:20.776Z,42.10
2023-01-20T12:47:47.446Z,41.97
2023-01-20T12:50:14.450Z,42.25
2023-01-20T12:52:41.434Z,41.63
2023-01-20T12:55:08.126Z,42.31
2023-01-20T12:57:34.859Z,42.20
2023-01-20T13:00:01.582Z,42.50
2023-01-20T13:02:28.335Z,41.90
2023-01-20T13:04:54.989Z,42.58
2023-01-20T13:07:21.684Z,42.88
2023-01-20T13:09:48.345Z,41.68
2023-01-20T13:12:14.984Z,42.05
2023-01-20T13:14:41.671Z,41.71
2023-01-20T13:17:08.348Z,42.59
2023-01-20T13:19:35.026Z,42.82
2023-01-20T13:22:07.948Z,42.69
2023-01-20T13:24:34.975Z,42.16
2023-01-20T13:27:01.604Z,42.07
2023-01-20T13:29:28.237Z,42.27
2023-01-20T13:31:55.001Z,41.63
2023-01-20T13:34:21.724Z,41.63
2023-01-20T13:36:48.385Z,42.86
2023-01-20T13:39:15.042Z,41.84
2023-01-20T13:41:41.735Z,42.10
2023-01-20T13:44:08.453Z,41.54
2023-01-20T13:46:35.113Z,41.81
2023-01-20T13:49:01.798Z,43.49
2023-01-20T13:51:28.457Z,42.90
2023-01-20T13:53:55.114Z,42.92
2023-01-20T13:56:22.528Z,41.60
2023-01-20T13:58:49.177Z,41.50
2023-01-20T14:01:15.904Z,42.54
2023-01-20T14:03:42.572Z,42.02
2023-01-20T14:06:09.257Z,41.43
2023-01-20T14:08:35.906Z,41.77
2023-01-20T14:11:02.527Z,41.54
2023-01-20T14:13:29.177Z,40.85
2023-01-20T14:15:56.076Z,40.48
2023-01-20T14:18:22.873Z,40.68
2023-01-20T14:20:49.585Z,40.42
2023-01-20T14:23:16.253Z,40.39
2023-01-20T14:25:42.906Z,40.64
2023-01-20T14:28:09.587Z,40.82
2023-01-20T14:30:36.258Z,40.74
2023-01-20T14:33:02.918Z,40.12
2023-01-20T14:35:29.571Z,40.94
2023-01-20T14:37:56.186Z,41.71
2023-01-20T14:40:22.901Z,40.26
2023-01-20T14:42:49.583Z,41.40
2023-01-20T14:45:16.262Z,40.82
2023-01-20T14:47:42.851Z,41.29
2023-01-20T14:50:09.586Z,40.32
2023-01-20T14:52:36.346Z,41.97
2023-01-20T14:55:02.996Z,41.52
2023-01-20T14:57:29.633Z,40.87
2023-01-20T14:59:56.279Z,41.35
2023-01-20T15:02:22.970Z,41.73
2023-01-20T15:04:49.610Z,41.43
2023-01-20T15:07:16.312Z,40.61
2023-01-20T15:09:42.951Z,40.57
2023-01-20T15:12:09.616Z,40.31
2023-01-20T15:14:36.258Z,40.37
2023-01-20T15:17:02.920Z,40.10
2023-01-20T15:19:29.572Z,40.01
2023-01-20T15:21:56.292Z,40.40
2023-01-20T15:24:22.988Z,40.93
2023-01-20T15:26:49.606Z,40.87
2023-01-20T15:29:16.272Z,41.19
2023-01-20T15:31:42.967Z,41.23
2023-01-20T15:34:09.639Z,40.95
2023-01-20T15:36:36.251Z,40.87
2023-01-20T15:39:02.884Z,40.52
2023-01-20T15:41:29.535Z,39.69
2023-01-20T15:43:56.217Z,41.23
2023-01-20T15:46:22.883Z,41.10
2023-01-20T15:48:49.576Z,41.30
2023-01-20T15:51:16.294Z,41.56
2023-01-20T15:53:43.008Z,41.64
2023-01-20T15:56:09.655Z,41.90
2023-01-20T15:58:36.353Z,41.64
2023-01-20T16:01:03.094Z,41.88
2023-01-20T16:03:29.768Z,41.18
2023-01-20T16:05:56.519Z,41.66
2023-01-20T16:08:23.169Z,41.78
2023-01-20T16:10:49.926Z,41.40
2023-01-20T16:13:16.553Z,40.86
2023-01-20T16:15:43.228Z,41.56
2023-01-20T16:18:09.933Z,41.21
2023-01-20T16:20:36.548Z,41.39
2023-01-20T16:23:03.229Z,41.90
2023-01-20T16:25:29.895Z,41.64
2023-01-20T16:27:56.573Z,42.65
2023-01-20T16:30:23.193Z,41.88
2023-01-20T16:32:49.879Z,42.28
2023-01-20T16:35:16.533Z,41.80
2023-01-20T16:37:43.148Z,40.70
2023-01-20T16:40:09.802Z,41.53
2023-01-20T16:42:36.462Z,41.17
2023-01-20T16:45:03.131Z,40.46
2023-01-20T16:47:29.819Z,41.62
2023-01-20T16:49:56.521Z,41.19
2023-01-20T16:52:25.472Z,41.42
2023-01-20T16:54:52.109Z,41.76
2023-01-20T16:57:18.758Z,41.19
2023-01-20T16:59:45.421Z,41.44
2023-01-20T17:02:12.140Z,40.69
2023-01-20T17:04:38.837Z,40.68
2023-01-20T17:07:05.512Z,41.94
2023-01-20T17:09:32.202Z,41.46
2023-01-20T17:11:58.926Z,41.27
2023-01-20T17:14:25.575Z,40.88
2023-01-20T17:16:52.233Z,41.09
2023-01-20T17:19:18.857Z,40.04
2023-01-20T17:21:46.025Z,40.19
2023-01-20T17:24:12.709Z,40.58
2023-01-20T17:26:39.412Z,40.85
2023-01-20T17:29:06.055Z,40.97
2023-01-20T17:31:32.823Z,40.14
2023-01-20T17:33:59.561Z,40.98
2023-01-20T17:36:26.194Z,41.05
2023-01-20T17:38:52.841Z,41.07
2023-01-20T17:41:19.476Z,40.90
2023-01-20T17:43:46.221Z,41.17
2023-01-20T17:46:12.929Z,41.47
2023-01-20T17:48:39.602Z,41.21
2023-01-20T17:51:06.310Z,41.34
2023-01-20T17:53:33.015Z,41.44
2023-01-20T17:56:11.787Z,41.27
2023-01-20T17:58:39.640Z,41.87
2023-01-20T18:01:06.414Z,42.13
2023-01-20T18:03:33.085Z,42.73
2023-01-20T18:05:59.735Z,41.56
2023-01-20T18:08:26.409Z,41.69
2023-01-20T18:10:53.013Z,41.52
2023-01-20T18:13:19.707Z,41.05
2023-01-20T18:15:46.374Z,40.91
2023-01-20T18:18:13.034Z,40.95
2023-01-20T18:20:39.703Z,41.56
2023-01-20T18:23:06.416Z,41.12
2023-01-20T18:25:33.233Z,41.33
2023-01-20T18:27:59.923Z,40.90
2023-01-20T18:30:26.575Z,41.17
2023-01-20T18:32:53.220Z,41.01
2023-01-20T18:35:19.896Z,41.13
2023-01-20T18:37:46.542Z,41.20
2023-01-20T18:40:13.187Z,41.07
2023-01-20T18:42:39.861Z,40.79
2023-01-20T18:45:06.463Z,40.41
2023-01-20T18:47:33.122Z,41.18
2023-01-20T18:49:59.788Z,40.71
2023-01-20T18:52:26.463Z,40.99
2023-01-20T18:54:53.157Z,40.34
2023-01-20T18:57:19.780Z,40.58
2023-01-20T18:59:46.462Z,40.89
2023-01-20T19:02:13.122Z,41.46
2023-01-20T19:04:39.770Z,41.54
2023-01-20T19:07:06.385Z,40.80
2023-01-20T19:09:33.075Z,41.00
2023-01-20T19:11:59.680Z,41.80
2023-01-20T19:14:26.889Z,41.90
2023-01-20T19:16:53.615Z,41.60
2023-01-20T19:19:20.483Z,41.09
2023-01-20T19:21:47.147Z,40.58
2023-01-20T19:24:13.762Z,40.35
2023-01-20T19:26:40.461Z,40.32
2023-01-20T19:29:07.117Z,40.54
2023-01-20T19:31:33.885Z,41.17
2023-01-20T19:34:00.623Z,41.89
2023-01-20T19:36:27.265Z,41.40
2023-01-20T19:38:53.964Z,40.59
2023-01-20T19:41:20.662Z,41.30
2023-01-20T19:43:47.330Z,40.34
2023-01-20T19:46:14.243Z,41.04
2023-01-20T19:48:40.921Z,40.87
2023-01-20T19:51:07.619Z,40.85
2023-01-20T19:53:34.236Z,40.89
2023-01-20T19:56:00.888Z,40.73
2023-01-20T19:58:27.584Z,40.73
2023-01-20T20:00:54.312Z,40.56
2023-01-20T20:03:20.923Z,40.93
2023-01-20T20:05:47.562Z,41.21
2023-01-20T20:08:14.165Z,40.39
2023-01-20T20:10:40.850Z,40.77
2023-01-20T20:13:07.470Z,40.48
2023-01-20T20:15:34.188Z,40.49
2023-01-20T20:18:00.850Z,40.99
2023-01-20T20:20:27.767Z,40.16
2023-01-20T20:22:54.429Z,39.71
2023-01-20T20:25:21.090Z,40.67
2023-01-20T20:27:47.777Z,40.58
2023-01-20T20:30:14.513Z,40.34
2023-01-20T20:32:41.345Z,41.05
2023-01-20T20:35:07.979Z,40.45
2023-01-20T20:37:34.638Z,41.62
2023-01-20T20:40:01.321Z,41.46
2023-01-20T20:42:27.945Z,42.13
2023-01-20T20:44:54.594Z,42.44
2023-01-20T20:47:21.233Z,42.12
2023-01-20T20:49:47.913Z,42.28
2023-01-20T20:52:14.693Z,42.28
2023-01-20T20:54:41.394Z,42.63
2023-01-20T20:57:08.035Z,41.36
2023-01-20T20:59:34.747Z,42.53
2023-01-20T21:02:01.490Z,42.71
2023-01-20T21:04:28.198Z,42.15
2023-01-20T21:06:54.879Z,43.05
2023-01-20T21:09:21.668Z,41.51
2023-01-20T21:11:48.325Z,42.33
2023-01-20T21:14:14.963Z,42.75
2023-01-20T21:16:41.631Z,43.26
2023-01-20T21:19:08.289Z,43.99
2023-01-20T21:21:34.968Z,44.17
2023-01-20T21:24:01.596Z,44.92
2023-01-20T21:26:30.229Z,44.28
2023-01-20T21:28:57.397Z,45.02
2023-01-20T21:31:24.094Z,44.81
2023-01-20T21:33:50.770Z,44.44
2023-01-20T21:36:17.500Z,44.30
2023-01-20T21:38:44.187Z,42.79
2023-01-20T21:41:10.900Z,43.01
2023-01-20T21:43:37.592Z,43.20
2023-01-20T21:46:04.232Z,42.75
2023-01-20T21:48:30.895Z,41.88
2023-01-20T21:50:57.710Z,42.95
2023-01-20T21:53:24.445Z,42.76
2023-01-20T21:55:51.102Z,42.13
2023-01-20T21:58:17.808Z,42.55
2023-01-20T22:00:44.535Z,41.59
2023-01-20T22:03:11.239Z,42.64
2023-01-20T22:05:37.899Z,42.58
2023-01-20T22:08:04.574Z,42.87
2023-01-20T22:10:31.203Z,42.63
2023-01-20T22:12:57.866Z,43.37
2023-01-20T22:15:24.507Z,42.90
2023-01-20T22:17:51.140Z,43.59
2023-01-20T22:20:18.140Z,43.46
2023-01-20T22:22:45.042Z,43.84
2023-01-20T22:25:11.693Z,44.04
2023-01-20T22:27:38.292Z,43.55
2023-01-20T22:30:04.928Z,43.78
2023-01-20T22:32:31.565Z,43.37
2023-01-20T22:34:58.246Z,43.63
2023-01-20T22:37:24.936Z,43.89
2023-01-20T22:39:51.620Z,44.16
2023-01-20T22:42:18.384Z,43.52
2023-01-20T22:44:45.031Z,42.17
2023-01-20T22:47:11.733Z,43.27
2023-01-20T22:49:38.351Z,42.17
2023-01-20T22:52:04.994Z,43.00
2023-01-20T22:54:31.591Z,41.85
2023-01-20T22:56:58.189Z,41.94
2023-01-20T22:59:24.833Z,42.44
2023-01-20T23:01:51.515Z,42.02
2023-01-20T23:04:18.225Z,42.07
2023-01-20T23:06:44.879Z,41.73
2023-01-20T23:09:11.564Z,42.84
2023-01-20T23:11:38.423Z,41.86
2023-01-20T23:14:05.148Z,42.69
2023-01-20T23:16:31.852Z,42.07
2023-01-20T23:18:58.533Z,42.06
2023-01-20T23:21:25.281Z,42.62
2023-01-20T23:23:51.939Z,42.04
2023-01-20T23:26:18.559Z,43.02
2023-01-20T23:28:45.290Z,42.75
2023-01-20T23:31:11.945Z,41.96
2023-01-20T23:33:43.316Z,43.24
2023-01-20T23:36:10.277Z,42.19
2023-01-20T23:38:36.923Z,42.64
2023-01-20T23:41:03.565Z,42.81
2023-01-20T23:43:30.256Z,42.48
2023-01-20T23:45:57.000Z,42.84
2023-01-20T23:48:23.685Z,42.51
2023-01-20T23:50:50.308Z,43.11
2023-01-20T23:53:16.992Z,42.34
2023-01-20T23:55:43.647Z,40.89
2023-01-20T23:58:10.318Z,41.72
